Eagle Creek, OR

7:19 PM PDT on August 28, 2014 (GMT -0700)
KORESTAC3 | Change Station
CLOSE
Current Station
Personal Weather Station
Location: Estacada, OR
Elevation: 550 ft
Nearby Weather Stations

Elev 550 ft 45.33 °N, 122.40 °W | Updated 27 seconds ago

Clear
Clear
78.8 °F
Feels Like 79 °F
N
0.0
Wind Variable Wind from NW
Gusts 3.0 mph

Today
High -- | Low -- °F
--% Chance of Precip.
Yesterday
High -- | Low -- °F
Precip. -- in
6:26 AM 7:53 PM
Waxing Crescent, 11% visible
Pressure 29.99 in
Visibility 10.0 miles
Clouds Clear
Heat Index 79 °F
Dew Point 53 °F
Humidity 41%
Rainfall 0.00 in
Snow Depth Not available.
UV 0 out of 12
Pollen 3.80 out of 12
Air Quality Not available.
Flu Activity Not available.
METAR KTTD 290153Z 34004KT 10SM CLR 28/12 A2998 RMK AO2 SLP153 T02780122

More Conditions Fewer Conditions

Pressure 29.99 in
Visibility 10.0 miles
Clouds Clear
Heat Index 79 °F
Dew Point 53 °F
Humidity 41%
Rainfall 0.00 in
Snow Depth Not available.
UV 0 out of 12
Pollen 3.80 out of 12
Air Quality Not available.
Flu Activity Not available.
METAR KTTD 290153Z 34004KT 10SM CLR 28/12 A2998 RMK AO2 SLP153 T02780122

More Conditions Fewer Conditions

10-Day Weather Forecast

Almanac

Astronomy

Aug. 28, 2014 Rise Set
Actual Time 6:26 AM PDT 7:53 PM PDT
Civil Twilight 5:55 AM PDT 8:24 PM PDT
Nautical Twilight 5:17 AM PDT 9:01 PM PDT
Astronomical Twilight 4:37 AM PDT 9:41 PM PDT
Moon 9:34 AM PDT (8/28) 9:09 PM PDT (8/28)
Length of Visible Light 14h 29m
Length of Day
13h 27m
Tomorrow will be 3m 2s shorter.
Waxing Crescent, 11% of the Moon is Illuminated
Today
Waxing Crescent
Sep 2
First Quarter
Sep 8
Full
Sep 15
Last Quarter
Sep 24
New

Today's Extremes

State Highs State Lows

Community

WunderPhotos

Upload Photos

1,748,124 photos uploaded!

Nearby

Snow Depth

Station Depth Elevation
North Fork 0 in 3120 ft
Blazed Alder 0 in 3650 ft
Peavine Ridge 3 in 3500 ft
Mud Ridge 0 in 3800 ft
Clear Lake 1 in 3500 ft

Earthquake Activity

City Distance Mag. Time & Date
No recent earthquake activity has been reported nearby.
Minimum magnitude displayed is 2.5.

Coastal Water Temperatures

Place Temperature
No Stations Reporting

Nearby Weather Stations